createdAt,value
2022-11-27T00:01:36.399Z,64.66
2022-11-27T00:04:05.963Z,64.92
2022-11-27T00:06:36.806Z,64.12
2022-11-27T00:09:07.313Z,63.49
2022-11-27T00:11:36.042Z,63.07
2022-11-27T00:14:04.774Z,62.43
2022-11-27T00:16:33.962Z,62.04
2022-11-27T00:19:02.659Z,61.83
2022-11-27T00:21:33.644Z,61.38
2022-11-27T00:24:05.674Z,60.63
2022-11-27T00:26:37.898Z,60.56
2022-11-27T00:29:07.768Z,60.25
2022-11-27T00:31:37.825Z,59.48
2022-11-27T00:34:08.871Z,59.84
2022-11-27T00:36:38.443Z,58.95
2022-11-27T00:39:08.552Z,58.36
2022-11-27T00:41:36.999Z,58.56
2022-11-27T00:44:06.677Z,58.66
2022-11-27T00:46:36.313Z,58.66
2022-11-27T00:49:07.036Z,57.94
2022-11-27T00:51:35.985Z,57.78
2022-11-27T00:54:05.010Z,57.49
2022-11-27T00:56:37.454Z,57.11
2022-11-27T00:59:06.786Z,57.31
2022-11-27T01:01:38.282Z,58.01
2022-11-27T01:04:09.125Z,59.72
2022-11-27T01:06:38.659Z,61.81
2022-11-27T01:09:07.523Z,62.21
2022-11-27T01:11:38.664Z,61.04
2022-11-27T01:14:10.179Z,61.14
2022-11-27T01:16:42.880Z,64.03
2022-11-27T01:19:13.448Z,64.85
2022-11-27T01:21:42.321Z,63.66
2022-11-27T01:24:13.174Z,62.59
2022-11-27T01:26:43.479Z,62.68
2022-11-27T01:29:12.504Z,62.17
2022-11-27T01:31:41.342Z,61.90
2022-11-27T01:34:15.356Z,61.35
2022-11-27T01:36:44.158Z,61.21
2022-11-27T01:39:16.684Z,60.68
2022-11-27T01:41:48.217Z,60.50
2022-11-27T01:44:50.182Z,59.90
2022-11-27T01:47:32.651Z,59.47
2022-11-27T01:50:12.374Z,59.25
2022-11-27T01:52:45.663Z,59.38
2022-11-27T01:55:20.447Z,58.61
2022-11-27T01:57:54.203Z,58.30
2022-11-27T02:00:24.396Z,59.69
2022-11-27T02:02:52.825Z,59.42
2022-11-27T02:05:24.361Z,58.96
2022-11-27T02:07:54.359Z,58.46
2022-11-27T02:10:28.620Z,58.36
2022-11-27T02:13:04.627Z,58.13
2022-11-27T02:15:43.388Z,59.20
2022-11-27T02:18:19.930Z,58.73
2022-11-27T02:20:59.555Z,58.45
2022-11-27T02:23:57.951Z,57.74
2022-11-27T02:26:43.438Z,58.05
2022-11-27T02:29:15.224Z,58.22
2022-11-27T02:31:53.003Z,58.39
2022-11-27T02:34:28.665Z,58.50
2022-11-27T02:37:03.498Z,57.47
2022-11-27T02:39:39.839Z,57.48
2022-11-27T02:42:16.796Z,58.50
2022-11-27T02:44:50.671Z,58.04
2022-11-27T02:47:20.609Z,57.42
2022-11-27T02:49:52.532Z,57.47
2022-11-27T02:52:21.533Z,57.59
2022-11-27T02:54:53.097Z,57.77
2022-11-27T02:57:24.532Z,57.50
2022-11-27T02:59:57.699Z,57.57
2022-11-27T03:02:31.854Z,57.81
2022-11-27T03:05:03.949Z,57.24
2022-11-27T03:07:38.730Z,57.40
2022-11-27T03:10:13.710Z,58.22
2022-11-27T03:12:42.559Z,57.62
2022-11-27T03:15:13.303Z,57.59
2022-11-27T03:17:52.749Z,57.80
2022-11-27T03:20:25.358Z,58.08
2022-11-27T03:22:55.042Z,57.79
2022-11-27T03:25:24.488Z,57.84
2022-11-27T03:27:58.000Z,58.08
2022-11-27T03:30:27.964Z,57.89
2022-11-27T03:32:56.953Z,57.82
2022-11-27T03:35:27.529Z,57.99
2022-11-27T03:37:57.353Z,57.72
2022-11-27T03:40:36.885Z,56.74
2022-11-27T03:43:12.233Z,56.97
2022-11-27T03:45:49.014Z,57.25
2022-11-27T03:48:25.930Z,56.70
2022-11-27T03:51:08.050Z,57.44
2022-11-27T03:53:51.436Z,58.40
2022-11-27T03:56:33.727Z,57.91
2022-11-27T03:59:07.596Z,58.10
2022-11-27T04:01:38.164Z,58.81
2022-11-27T04:04:07.287Z,59.13
2022-11-27T04:06:35.789Z,58.48
2022-11-27T04:09:04.905Z,58.95
2022-11-27T04:11:33.364Z,59.17
2022-11-27T04:14:02.358Z,59.02
2022-11-27T04:16:31.015Z,58.65
2022-11-27T04:19:01.255Z,58.15
2022-11-27T04:21:29.575Z,58.13
2022-11-27T04:23:58.343Z,57.92
2022-11-27T04:26:26.890Z,58.05
2022-11-27T04:28:55.519Z,58.06
2022-11-27T04:31:23.885Z,57.70
2022-11-27T04:33:52.624Z,56.60
2022-11-27T04:36:22.493Z,57.46
2022-11-27T04:38:51.247Z,57.03
2022-11-27T04:41:19.616Z,56.61
2022-11-27T04:43:48.306Z,56.20
2022-11-27T04:46:16.670Z,57.14
2022-11-27T04:48:45.289Z,57.11
2022-11-27T04:51:13.778Z,57.58
2022-11-27T04:53:43.902Z,60.00
2022-11-27T04:56:12.260Z,62.14
2022-11-27T04:58:40.857Z,64.50
2022-11-27T05:01:10.062Z,64.85
2022-11-27T05:03:38.952Z,65.16
2022-11-27T05:06:07.841Z,65.26
2022-11-27T05:08:36.536Z,66.29
2022-11-27T05:11:08.547Z,66.72
2022-11-27T05:13:37.188Z,67.38
2022-11-27T05:16:06.696Z,67.73
2022-11-27T05:18:35.949Z,71.22
2022-11-27T05:21:06.379Z,72.68
2022-11-27T05:23:36.145Z,73.01
2022-11-27T05:26:06.181Z,71.79
2022-11-27T05:28:34.897Z,71.71
2022-11-27T05:31:03.413Z,70.63
2022-11-27T05:33:32.183Z,68.73
2022-11-27T05:36:00.626Z,67.70
2022-11-27T05:38:29.316Z,66.90
2022-11-27T05:40:57.833Z,66.76
2022-11-27T05:43:27.959Z,65.84
2022-11-27T05:45:56.411Z,65.20
2022-11-27T05:48:25.156Z,64.23
2022-11-27T05:50:53.588Z,65.16
2022-11-27T05:53:22.365Z,65.44
2022-11-27T05:55:50.720Z,64.37
2022-11-27T05:58:19.371Z,66.04
2022-11-27T06:00:49.213Z,67.45
2022-11-27T06:03:17.889Z,69.01
2022-11-27T06:05:46.344Z,70.40
2022-11-27T06:08:15.130Z,68.71
2022-11-27T06:10:43.564Z,67.65
2022-11-27T06:13:12.310Z,66.86
2022-11-27T06:15:41.572Z,66.59
2022-11-27T06:18:13.222Z,65.41
2022-11-27T06:20:44.705Z,66.56
2022-11-27T06:23:14.728Z,66.40
2022-11-27T06:25:43.158Z,66.14
2022-11-27T06:28:11.932Z,65.92
2022-11-27T06:30:40.323Z,65.07
2022-11-27T06:33:08.934Z,64.48
2022-11-27T06:35:38.678Z,65.51
2022-11-27T06:38:07.403Z,67.67
2022-11-27T06:40:35.872Z,69.23
2022-11-27T06:43:04.609Z,70.04
2022-11-27T06:45:33.055Z,70.38
2022-11-27T06:48:01.737Z,72.04
2022-11-27T06:50:30.218Z,73.74
2022-11-27T06:53:00.295Z,74.64
2022-11-27T06:55:28.837Z,73.06
2022-11-27T06:57:57.496Z,70.92
2022-11-27T07:00:25.843Z,69.37
2022-11-27T07:02:55.815Z,68.40
2022-11-27T07:05:25.263Z,66.98
2022-11-27T07:07:54.055Z,66.12
2022-11-27T07:10:23.854Z,65.57
2022-11-27T07:12:52.599Z,64.89
2022-11-27T07:15:20.952Z,64.17
2022-11-27T07:17:49.734Z,63.55
2022-11-27T07:20:18.322Z,62.77
2022-11-27T07:22:47.057Z,63.09
2022-11-27T07:25:15.526Z,66.30
2022-11-27T07:27:45.612Z,66.66
2022-11-27T07:30:15.287Z,66.34
2022-11-27T07:32:43.993Z,65.53
2022-11-27T07:35:12.280Z,66.68
2022-11-27T07:37:40.927Z,65.97
2022-11-27T07:40:09.887Z,65.94
2022-11-27T07:42:39.316Z,64.78
2022-11-27T07:45:10.676Z,64.07
2022-11-27T07:47:39.919Z,63.43
2022-11-27T07:50:09.962Z,62.89
2022-11-27T07:52:42.030Z,62.92
2022-11-27T07:55:11.783Z,62.34
2022-11-27T07:57:42.428Z,62.34
2022-11-27T08:00:13.234Z,62.03
2022-11-27T08:02:41.956Z,61.55
2022-11-27T08:05:12.972Z,61.76
2022-11-27T08:07:42.442Z,61.13
2022-11-27T08:10:11.127Z,59.92
2022-11-27T08:12:39.946Z,59.31
2022-11-27T08:15:09.567Z,59.03
2022-11-27T08:17:40.654Z,59.06
2022-11-27T08:20:09.619Z,58.46
2022-11-27T08:22:38.999Z,58.37
2022-11-27T08:25:08.051Z,59.17
2022-11-27T08:27:36.726Z,59.64
2022-11-27T08:30:07.068Z,59.80
2022-11-27T08:32:35.750Z,59.45
2022-11-27T08:35:05.926Z,58.43
2022-11-27T08:37:34.844Z,58.30
2022-11-27T08:40:03.458Z,57.61
2022-11-27T08:42:32.348Z,57.91
2022-11-27T08:45:00.834Z,56.71
2022-11-27T08:47:29.571Z,56.63
2022-11-27T08:49:58.087Z,56.76
2022-11-27T08:52:28.062Z,56.28
2022-11-27T08:54:57.962Z,56.21
2022-11-27T08:57:26.935Z,55.99
2022-11-27T08:59:55.325Z,56.10
2022-11-27T09:02:24.075Z,55.99
2022-11-27T09:04:52.653Z,55.28
2022-11-27T09:07:21.434Z,55.16
2022-11-27T09:09:51.163Z,55.48
2022-11-27T09:12:19.992Z,55.16
2022-11-27T09:14:48.346Z,55.48
2022-11-27T09:17:17.257Z,55.27
2022-11-27T09:19:45.573Z,54.84
2022-11-27T09:22:14.303Z,54.97
2022-11-27T09:24:42.967Z,54.54
2022-11-27T09:27:13.282Z,54.52
2022-11-27T09:29:41.607Z,53.98
2022-11-27T09:32:10.297Z,54.20
2022-11-27T09:34:39.115Z,54.42
2022-11-27T09:37:09.038Z,53.93
2022-11-27T09:39:37.697Z,53.22
2022-11-27T09:42:09.715Z,53.59
2022-11-27T09:44:45.406Z,53.70
2022-11-27T09:47:21.099Z,54.17
2022-11-27T09:49:53.066Z,55.89
2022-11-27T09:52:25.806Z,56.38
2022-11-27T09:54:59.006Z,58.29
2022-11-27T09:57:32.334Z,57.92
2022-11-27T10:00:06.372Z,57.31
2022-11-27T10:02:36.797Z,57.03
2022-11-27T10:05:15.081Z,56.58
2022-11-27T10:08:07.926Z,55.70
2022-11-27T10:10:44.733Z,54.50
2022-11-27T10:13:34.828Z,54.01
2022-11-27T10:16:14.457Z,53.53
2022-11-27T10:18:48.177Z,53.02
2022-11-27T10:21:23.048Z,52.75
2022-11-27T10:24:01.062Z,52.55
2022-11-27T10:26:35.045Z,52.89
2022-11-27T10:29:13.130Z,53.05
2022-11-27T10:31:50.669Z,52.74
2022-11-27T10:34:31.136Z,52.54
2022-11-27T10:37:03.662Z,52.62
2022-11-27T10:39:37.350Z,52.34
2022-11-27T10:42:11.615Z,52.24
2022-11-27T10:44:45.458Z,51.98
2022-11-27T10:47:16.645Z,51.69
2022-11-27T10:49:46.052Z,51.62
2022-11-27T10:52:16.770Z,51.40
2022-11-27T10:54:50.810Z,51.92
2022-11-27T10:57:45.016Z,51.69
2022-11-27T11:00:20.064Z,52.84
2022-11-27T11:02:50.536Z,53.30
2022-11-27T11:05:41.016Z,53.61
2022-11-27T11:08:19.346Z,53.87
2022-11-27T11:10:53.811Z,54.01
2022-11-27T11:13:27.367Z,54.22
2022-11-27T11:15:59.470Z,54.50
2022-11-27T11:18:31.625Z,55.49
2022-11-27T11:21:02.719Z,56.22
2022-11-27T11:23:34.873Z,56.22
2022-11-27T11:26:16.200Z,56.85
2022-11-27T11:28:51.668Z,56.41
2022-11-27T11:31:22.941Z,57.41
2022-11-27T11:33:59.266Z,56.95
2022-11-27T11:36:28.369Z,57.26
2022-11-27T11:38:57.462Z,56.95
2022-11-27T11:41:26.282Z,56.79
2022-11-27T11:43:57.711Z,56.91
2022-11-27T11:46:30.029Z,56.66
2022-11-27T11:49:08.476Z,56.30
2022-11-27T11:52:09.215Z,55.69
2022-11-27T11:54:50.146Z,56.17
2022-11-27T11:57:51.503Z,56.32
2022-11-27T12:00:28.240Z,55.91
2022-11-27T12:03:19.402Z,56.23
2022-11-27T12:06:02.199Z,55.97
2022-11-27T12:08:47.791Z,56.16
2022-11-27T12:11:18.397Z,55.58
2022-11-27T12:14:03.413Z,55.78
2022-11-27T12:16:42.909Z,55.72
2022-11-27T12:19:28.965Z,55.84
2022-11-27T12:22:12.478Z,55.93
2022-11-27T12:24:55.527Z,55.56
2022-11-27T12:27:31.890Z,55.81
2022-11-27T12:30:07.695Z,55.94
2022-11-27T12:32:57.278Z,56.28
2022-11-27T12:35:33.377Z,56.83
2022-11-27T12:38:33.897Z,57.43
2022-11-27T12:41:27.675Z,57.56
2022-11-27T12:44:00.291Z,57.38
2022-11-27T12:46:37.972Z,57.92
2022-11-27T12:49:15.579Z,58.12
2022-11-27T12:51:50.416Z,57.23
2022-11-27T12:54:23.989Z,57.60
2022-11-27T12:56:58.127Z,57.63
2022-11-27T12:59:31.536Z,57.55
2022-11-27T13:02:07.529Z,57.28
2022-11-27T13:04:43.547Z,56.80
2022-11-27T13:07:20.536Z,57.05
2022-11-27T13:09:55.739Z,57.06
2022-11-27T13:12:29.940Z,57.28
2022-11-27T13:15:03.790Z,56.74
2022-11-27T13:17:38.448Z,56.63
2022-11-27T13:20:15.966Z,56.54
2022-11-27T13:22:45.176Z,56.75
2022-11-27T13:25:15.983Z,57.13
2022-11-27T13:27:48.688Z,57.18
2022-11-27T13:30:22.826Z,57.16
2022-11-27T13:32:54.818Z,56.97
2022-11-27T13:35:30.490Z,56.47
2022-11-27T13:38:08.847Z,56.31
2022-11-27T13:40:42.548Z,56.29
2022-11-27T13:43:24.063Z,55.76
2022-11-27T13:45:53.029Z,55.97
2022-11-27T13:48:34.224Z,55.71
2022-11-27T13:51:03.256Z,55.52
2022-11-27T13:53:35.089Z,55.80
2022-11-27T13:56:06.986Z,55.45
2022-11-27T13:58:38.150Z,54.74
2022-11-27T14:01:18.373Z,54.25
2022-11-27T14:03:47.746Z,54.65
2022-11-27T14:06:20.070Z,54.71
2022-11-27T14:08:55.897Z,54.07
2022-11-27T14:11:40.212Z,54.08
2022-11-27T14:14:19.529Z,54.31
2022-11-27T14:16:57.711Z,54.31
2022-11-27T14:19:34.515Z,54.05
2022-11-27T14:22:14.485Z,54.07
2022-11-27T14:24:45.975Z,54.51
2022-11-27T14:27:22.178Z,54.22
2022-11-27T14:29:52.394Z,53.77
2022-11-27T14:32:21.951Z,53.62
2022-11-27T14:34:50.845Z,53.64
2022-11-27T14:37:27.037Z,53.08
2022-11-27T14:39:56.420Z,53.73
2022-11-27T14:42:32.972Z,54.08
2022-11-27T14:45:05.855Z,53.89
2022-11-27T14:47:35.216Z,53.42
2022-11-27T14:50:04.596Z,52.53
2022-11-27T14:52:33.320Z,52.31
2022-11-27T14:55:03.540Z,52.13
2022-11-27T14:57:33.760Z,51.41
2022-11-27T15:00:06.035Z,51.61
2022-11-27T15:02:34.859Z,52.57
2022-11-27T15:05:06.571Z,53.24
2022-11-27T15:07:45.338Z,52.85
2022-11-27T15:10:25.347Z,52.66
2022-11-27T15:12:55.762Z,52.38
2022-11-27T15:15:27.578Z,51.66
2022-11-27T15:17:59.244Z,52.03
2022-11-27T15:20:33.750Z,52.19
2022-11-27T15:23:03.460Z,51.96
2022-11-27T15:25:43.464Z,51.55
2022-11-27T15:28:38.517Z,51.77
2022-11-27T15:31:30.242Z,51.33
2022-11-27T15:34:01.588Z,51.04
2022-11-27T15:36:38.306Z,51.33
2022-11-27T15:39:19.042Z,50.38
2022-11-27T15:41:57.172Z,50.00
2022-11-27T15:44:29.116Z,54.40
2022-11-27T15:47:00.506Z,54.88
2022-11-27T15:49:29.259Z,54.58
2022-11-27T15:51:59.061Z,54.08
2022-11-27T15:54:27.601Z,53.84
2022-11-27T15:56:56.279Z,52.88
2022-11-27T15:59:29.374Z,52.39
2022-11-27T16:01:58.240Z,52.06
2022-11-27T16:04:26.822Z,51.86
2022-11-27T16:06:55.518Z,51.72
2022-11-27T16:09:23.981Z,51.55
2022-11-27T16:11:52.830Z,52.13
2022-11-27T16:14:21.485Z,52.71
2022-11-27T16:16:51.833Z,52.84
2022-11-27T16:19:21.334Z,52.72
2022-11-27T16:21:50.407Z,52.39
2022-11-27T16:24:19.084Z,52.60
2022-11-27T16:26:47.833Z,52.23
2022-11-27T16:29:16.645Z,52.00
2022-11-27T16:31:45.981Z,52.31
2022-11-27T16:34:17.679Z,53.09
2022-11-27T16:36:47.105Z,52.25
2022-11-27T16:39:18.455Z,52.05
2022-11-27T16:41:47.212Z,51.53
2022-11-27T16:44:16.718Z,51.34
2022-11-27T16:46:46.070Z,51.05
2022-11-27T16:49:16.780Z,50.98
2022-11-27T16:51:46.223Z,51.04
2022-11-27T16:54:15.620Z,50.56
2022-11-27T16:56:45.192Z,51.02
2022-11-27T16:59:16.244Z,51.25
2022-11-27T17:01:45.612Z,51.76
2022-11-27T17:04:19.609Z,51.69
2022-11-27T17:06:49.961Z,51.92
2022-11-27T17:09:18.755Z,50.89
2022-11-27T17:11:49.912Z,50.34
2022-11-27T17:14:20.562Z,50.67
2022-11-27T17:16:51.070Z,50.72
2022-11-27T17:19:23.443Z,50.69
2022-11-27T17:21:52.293Z,50.51
2022-11-27T17:24:21.521Z,50.29
2022-11-27T17:26:53.968Z,50.70
2022-11-27T17:29:26.067Z,50.33
2022-11-27T17:31:55.685Z,51.06
2022-11-27T17:34:25.513Z,50.30
2022-11-27T17:36:57.589Z,50.08
2022-11-27T17:39:26.725Z,50.73
2022-11-27T17:41:55.519Z,50.99
2022-11-27T17:44:23.986Z,50.17
2022-11-27T17:46:52.948Z,50.40
2022-11-27T17:49:22.974Z,50.22
2022-11-27T17:51:53.941Z,50.12
2022-11-27T17:54:22.609Z,50.04
2022-11-27T17:56:52.622Z,49.78
2022-11-27T17:59:22.021Z,50.60
2022-11-27T18:01:53.020Z,49.95
2022-11-27T18:04:22.188Z,50.13
2022-11-27T18:06:51.103Z,50.60
2022-11-27T18:09:20.888Z,49.92
2022-11-27T18:11:49.729Z,50.54
2022-11-27T18:14:19.219Z,49.97
2022-11-27T18:16:48.112Z,49.89
2022-11-27T18:19:16.950Z,50.67
2022-11-27T18:21:45.939Z,50.40
2022-11-27T18:24:23.037Z,50.56
2022-11-27T18:27:10.148Z,50.04
2022-11-27T18:29:40.724Z,50.92
2022-11-27T18:32:10.425Z,50.53
2022-11-27T18:34:39.684Z,50.39
2022-11-27T18:37:09.334Z,50.52
2022-11-27T18:39:40.363Z,50.35
2022-11-27T18:42:11.181Z,50.80
2022-11-27T18:44:44.809Z,50.41
2022-11-27T18:47:15.928Z,50.42
2022-11-27T18:49:48.277Z,50.67
2022-11-27T18:52:17.380Z,50.06
2022-11-27T18:54:45.991Z,50.33
2022-11-27T18:57:16.198Z,50.70
2022-11-27T18:59:47.086Z,49.70
2022-11-27T19:02:16.049Z,49.80
2022-11-27T19:04:45.322Z,49.97
2022-11-27T19:07:14.273Z,50.08
2022-11-27T19:09:44.402Z,50.06
2022-11-27T19:12:13.896Z,50.41
2022-11-27T19:14:44.133Z,50.74
2022-11-27T19:17:13.263Z,50.98
2022-11-27T19:19:57.194Z,50.56
2022-11-27T19:22:26.998Z,50.38
2022-11-27T19:24:58.215Z,51.43
2022-11-27T19:27:27.029Z,51.78
2022-11-27T19:29:57.329Z,52.25
2022-11-27T19:32:26.191Z,52.30
2022-11-27T19:34:54.901Z,51.64
2022-11-27T19:37:34.056Z,51.95
2022-11-27T19:40:05.720Z,51.73
2022-11-27T19:42:34.476Z,51.97
2022-11-27T19:45:04.495Z,52.00
2022-11-27T19:47:33.655Z,51.93
2022-11-27T19:50:02.671Z,51.99
2022-11-27T19:52:32.500Z,52.03
2022-11-27T19:55:00.998Z,52.36
2022-11-27T19:57:30.141Z,52.03
2022-11-27T19:59:59.125Z,52.22
2022-11-27T20:02:30.272Z,52.28
2022-11-27T20:04:59.976Z,52.24
2022-11-27T20:07:28.919Z,52.57
2022-11-27T20:09:58.555Z,52.54
2022-11-27T20:12:27.280Z,52.04
2022-11-27T20:14:57.461Z,51.74
2022-11-27T20:17:26.205Z,51.60
2022-11-27T20:19:56.231Z,51.84
2022-11-27T20:22:25.230Z,51.47
2022-11-27T20:25:17.891Z,51.07
2022-11-27T20:27:46.522Z,51.51
2022-11-27T20:30:15.340Z,51.69
2022-11-27T20:32:44.752Z,51.66
2022-11-27T20:35:15.292Z,52.13
2022-11-27T20:37:43.948Z,52.07
2022-11-27T20:40:13.133Z,52.92
2022-11-27T20:42:42.534Z,52.65
2022-11-27T20:45:14.066Z,53.03
2022-11-27T20:47:46.245Z,52.68
2022-11-27T20:50:16.275Z,53.22
2022-11-27T20:52:45.520Z,53.10
2022-11-27T20:55:14.932Z,52.74
2022-11-27T20:57:43.733Z,53.36
2022-11-27T21:00:12.955Z,52.98
2022-11-27T21:02:42.275Z,53.58
2022-11-27T21:05:11.100Z,53.69
2022-11-27T21:07:43.091Z,53.04
2022-11-27T21:10:15.003Z,53.89
2022-11-27T21:12:44.476Z,53.71
2022-11-27T21:15:14.206Z,53.58
2022-11-27T21:17:43.151Z,54.50
2022-11-27T21:20:12.415Z,55.40
2022-11-27T21:22:44.039Z,55.47
2022-11-27T21:25:12.554Z,55.69
2022-11-27T21:27:41.633Z,55.75
2022-11-27T21:30:11.110Z,55.89
2022-11-27T21:32:40.703Z,55.89
2022-11-27T21:35:09.899Z,55.75
2022-11-27T21:37:39.177Z,55.88
2022-11-27T21:40:10.266Z,55.54
2022-11-27T21:42:44.224Z,55.81
2022-11-27T21:45:13.109Z,55.85
2022-11-27T21:47:42.062Z,56.16
2022-11-27T21:50:13.277Z,56.35
2022-11-27T21:52:42.393Z,56.38
2022-11-27T21:55:12.478Z,56.48
2022-11-27T21:57:41.279Z,56.35
2022-11-27T22:00:10.807Z,57.07
2022-11-27T22:02:41.252Z,57.18
2022-11-27T22:05:10.368Z,57.78
2022-11-27T22:07:39.528Z,57.23
2022-11-27T22:10:09.851Z,57.83
2022-11-27T22:12:39.999Z,57.75
2022-11-27T22:15:09.238Z,57.70
2022-11-27T22:17:38.165Z,57.83
2022-11-27T22:20:08.064Z,57.74
2022-11-27T22:22:36.733Z,57.84
2022-11-27T22:25:05.989Z,57.36
2022-11-27T22:27:35.479Z,57.74
2022-11-27T22:30:06.416Z,57.27
2022-11-27T22:32:35.201Z,57.18
2022-11-27T22:35:04.005Z,56.74
2022-11-27T22:37:32.712Z,56.00
2022-11-27T22:40:01.248Z,56.09
2022-11-27T22:42:30.361Z,55.94
2022-11-27T22:44:58.911Z,56.18
2022-11-27T22:47:29.315Z,55.25
2022-11-27T22:49:57.713Z,55.36
2022-11-27T22:52:26.624Z,54.99
2022-11-27T22:54:55.342Z,55.00
2022-11-27T22:57:25.161Z,55.89
2022-11-27T22:59:55.212Z,55.27
2022-11-27T23:02:24.073Z,55.65
2022-11-27T23:04:54.555Z,55.21
2022-11-27T23:07:25.590Z,55.06
2022-11-27T23:09:54.451Z,55.31
2022-11-27T23:12:23.310Z,55.04
2022-11-27T23:14:51.712Z,55.10
2022-11-27T23:17:20.360Z,54.93
2022-11-27T23:19:48.696Z,54.58
2022-11-27T23:22:18.778Z,54.92
2022-11-27T23:24:47.348Z,54.03
2022-11-27T23:27:16.224Z,53.97
2022-11-27T23:29:45.097Z,53.92
2022-11-27T23:32:14.360Z,54.69
2022-11-27T23:34:43.205Z,54.28
2022-11-27T23:37:12.527Z,54.24
2022-11-27T23:39:42.370Z,54.53
2022-11-27T23:42:11.034Z,54.52
2022-11-27T23:44:39.878Z,54.09
2022-11-27T23:47:09.255Z,54.18
2022-11-27T23:49:37.706Z,53.64
2022-11-27T23:52:06.723Z,54.01
2022-11-27T23:54:35.163Z,53.89
2022-11-27T23:57:05.496Z,53.55
2022-11-27T23:59:33.969Z,54.07
